Time;durP1;ratioP1;P1;durP2;ratioP2;P2;SDS_P1;SDS_P2;PMS_P1;PMS_P2;Temp;Humidity;BMP_temperature;BMP_pressure;BME280_temperature;BME280_humidity;BME280_pressure;Samples;Min_cycle;Max_cycle;Signal;HPM_P1;HPM_P2
2022/04/05 00:00:43;;;;;;;7.90;7.30;;;;;;;5.73;100.00;98736.41;5104800;28;20281;-80
2022/04/05 00:03:10;;;;;;;7.43;6.83;;;;;;;5.74;100.00;98730.31;5103225;28;20231;-79
2022/04/05 00:05:37;;;;;;;7.07;6.47;;;;;;;5.78;100.00;98730.19;5102424;28;20782;-78
2022/04/05 00:08:03;;;;;;;7.50;6.90;;;;;;;5.80;100.00;98735.34;5101848;28;20220;-78
2022/04/05 00:10:31;;;;;;;6.87;6.37;;;;;;;5.79;100.00;98736.25;5102885;28;20205;-81
2022/04/05 00:13:01;;;;;;;8.17;7.37;;;;;;;5.82;100.00;98741.31;5102504;28;20204;-81
2022/04/05 00:15:30;;;;;;;8.47;7.77;;;;;;;5.84;100.00;98746.47;5093433;28;20199;-81
2022/04/05 00:17:56;;;;;;;7.17;6.60;;;;;;;5.83;100.00;98750.81;5092962;28;20224;-81
2022/04/05 00:20:23;;;;;;;7.83;7.07;;;;;;;5.76;100.00;98754.44;5102514;28;20306;-81
2022/04/05 00:22:50;;;;;;;8.30;7.50;;;;;;;5.73;100.00;98760.56;5103680;28;20205;-81
2022/04/05 00:25:16;;;;;;;8.70;7.93;;;;;;;5.70;100.00;98763.19;5103149;28;20242;-81
2022/04/05 00:27:45;;;;;;;8.50;7.70;;;;;;;5.62;100.00;98749.63;5103222;28;20200;-80
2022/04/05 00:30:12;;;;;;;8.70;8.00;;;;;;;5.63;100.00;98740.09;5102345;28;20204;-79
2022/04/05 00:32:39;;;;;;;9.03;8.17;;;;;;;5.64;100.00;98747.00;5102686;28;20205;-81
2022/04/05 00:35:06;;;;;;;7.77;7.17;;;;;;;5.67;100.00;98746.91;5101619;28;20246;-81
2022/04/05 00:37:32;;;;;;;7.90;7.20;;;;;;;5.63;100.00;98748.75;5103409;28;20206;-80
2022/04/05 00:39:58;;;;;;;7.03;6.43;;;;;;;5.63;100.00;98756.50;5102322;28;20582;-81
2022/04/05 00:42:25;;;;;;;6.63;6.13;;;;;;;5.64;100.00;98767.69;5103362;28;20212;-80
2022/04/05 00:44:52;;;;;;;6.87;6.33;;;;;;;5.67;100.00;98775.38;5098613;28;20250;-81
2022/04/05 00:47:21;;;;;;;7.27;6.57;;;;;;;5.67;100.00;98785.72;5091429;28;20217;-80
2022/04/05 00:49:49;;;;;;;7.23;6.63;;;;;;;5.62;100.00;98796.22;5103039;28;20746;-80
2022/04/05 00:52:17;;;;;;;7.83;7.20;;;;;;;5.61;100.00;98784.16;5103328;28;20598;-81
2022/04/05 00:54:45;;;;;;;7.67;6.97;;;;;;;5.61;100.00;98786.75;5103178;28;20196;-81
2022/04/05 00:57:15;;;;;;;7.00;6.40;;;;;;;5.66;100.00;98794.41;5102868;28;20208;-80
2022/04/05 00:59:43;;;;;;;8.27;7.57;;;;;;;5.59;100.00;98806.66;5104469;28;20285;-79
2022/04/05 01:02:13;;;;;;;9.30;6.53;;;;;;;5.63;100.00;98820.34;5103438;28;20277;-80
2022/04/05 01:04:43;;;;;;;4.80;4.40;;;;;;;5.55;100.00;98825.75;5103812;28;20257;-79
2022/04/05 01:07:11;;;;;;;1.87;1.77;;;;;;;5.48;100.00;98850.91;5105161;28;20240;-81
2022/04/05 01:09:39;;;;;;;2.23;2.00;;;;;;;5.47;100.00;98869.03;5103918;28;20363;-79
2022/04/05 01:12:06;;;;;;;1.10;1.10;;;;;;;5.42;100.00;98883.84;5103324;28;20304;-79
2022/04/05 01:14:33;;;;;;;0.93;0.93;;;;;;;5.37;100.00;98899.44;5103117;28;20197;-80
2022/04/05 01:16:59;;;;;;;0.50;0.50;;;;;;;5.40;100.00;98935.63;5095227;28;20201;-81
2022/04/05 01:19:27;;;;;;;0.80;0.80;;;;;;;5.33;100.00;98937.50;5099223;28;20220;-81
2022/04/05 01:21:54;;;;;;;0.93;0.70;;;;;;;5.31;100.00;98926.34;5101719;28;20203;-81
2022/04/05 01:24:23;;;;;;;0.50;0.50;;;;;;;5.26;100.00;98930.75;5101835;28;20678;-80
2022/04/05 01:26:52;;;;;;;0.50;0.50;;;;;;;5.21;100.00;98942.06;5101916;28;20211;-80
2022/04/05 01:29:21;;;;;;;0.37;0.30;;;;;;;5.15;100.00;98951.69;5101883;28;20227;-80
2022/04/05 01:31:49;;;;;;;0.53;0.30;;;;;;;5.18;100.00;98963.69;5101650;28;20258;-80
2022/04/05 01:34:18;;;;;;;0.20;0.20;;;;;;;5.14;100.00;98983.59;5101731;28;20706;-80
2022/04/05 01:36:46;;;;;;;0.30;0.30;;;;;;;5.13;100.00;98981.91;5102118;28;20201;-81
2022/04/05 01:39:15;;;;;;;0.30;0.30;;;;;;;5.17;100.00;98990.41;5101701;28;20270;-81
2022/04/05 01:41:42;;;;;;;0.40;0.40;;;;;;;5.17;100.00;98980.94;5102052;28;20230;-81
2022/04/05 01:44:10;;;;;;;0.33;0.33;;;;;;;5.18;100.00;98967.13;5102030;28;20594;-81
2022/04/05 01:46:37;;;;;;;0.67;0.67;;;;;;;5.20;100.00;98953.31;5097856;28;20230;-80
2022/04/05 01:49:06;;;;;;;0.63;0.63;;;;;;;5.16;100.00;98947.34;5095653;28;20216;-81
2022/04/05 01:51:34;;;;;;;1.23;0.70;;;;;;;5.15;100.00;98953.38;5101708;28;20674;-81
2022/04/05 01:54:05;;;;;;;0.80;0.80;;;;;;;5.18;100.00;98943.84;5101261;28;20211;-81
2022/04/05 01:56:31;;;;;;;0.70;0.70;;;;;;;5.19;100.00;98926.56;5100732;28;20188;-81
2022/04/05 01:58:59;;;;;;;0.70;0.70;;;;;;;5.15;100.00;98936.16;5101000;28;20258;-79
2022/04/05 02:01:25;;;;;;;0.63;0.60;;;;;;;5.14;100.00;98946.53;5099088;28;20678;-80
2022/04/05 02:03:52;;;;;;;0.60;0.60;;;;;;;5.19;100.00;98947.28;5098182;28;20608;-80
2022/04/05 02:06:18;;;;;;;0.97;0.57;;;;;;;5.18;100.00;98948.16;5098966;28;20269;-79
2022/04/05 02:08:45;;;;;;;0.70;0.70;;;;;;;5.15;100.00;98951.69;5099239;28;20718;-80
2022/04/05 02:11:11;;;;;;;0.60;0.60;;;;;;;5.13;100.00;98952.56;5099126;28;20222;-80
2022/04/05 02:13:38;;;;;;;0.73;0.73;;;;;;;5.12;100.00;98966.41;5098823;28;20204;-81
2022/04/05 02:16:06;;;;;;;1.33;0.60;;;;;;;5.15;100.00;98962.03;5091074;28;20245;-81
2022/04/05 02:18:32;;;;;;;0.70;0.70;;;;;;;5.15;100.00;98979.25;5089137;28;20251;-80
2022/04/05 02:20:59;;;;;;;0.93;0.93;;;;;;;5.18;100.00;98967.13;5098239;28;20207;-81
2022/04/05 02:23:25;;;;;;;0.67;0.67;;;;;;;5.19;100.00;98973.13;5099078;28;20247;-81
2022/04/05 02:25:52;;;;;;;0.90;0.90;;;;;;;5.23;100.00;98981.69;5097709;28;20219;-79
2022/04/05 02:28:18;;;;;;;0.90;0.90;;;;;;;5.20;100.00;98989.53;5097923;28;20220;-80
2022/04/05 02:30:44;;;;;;;1.10;1.10;;;;;;;5.21;100.00;98986.03;5097909;28;20233;-81
2022/04/05 02:33:12;;;;;;;1.00;1.00;;;;;;;5.20;100.00;98980.03;5097620;28;20792;-81
2022/04/05 02:35:39;;;;;;;1.10;1.00;;;;;;;5.27;100.00;98989.38;5097607;28;20212;-81
2022/04/05 02:38:05;;;;;;;1.57;1.07;;;;;;;5.33;99.69;99003.91;5097613;28;20235;-80
2022/04/05 02:40:32;;;;;;;1.10;1.00;;;;;;;5.35;99.28;99022.81;5097332;28;20261;-80
2022/04/05 02:42:58;;;;;;;1.43;1.33;;;;;;;5.30;99.39;99030.69;5097464;28;20279;-81
2022/04/05 02:45:24;;;;;;;1.90;1.73;;;;;;;5.31;99.65;99023.78;5096216;28;20232;-81
2022/04/05 02:47:51;;;;;;;1.77;1.43;;;;;;;5.34;99.79;99037.50;5091178;28;20220;-81
2022/04/05 02:50:18;;;;;;;1.50;1.40;;;;;;;5.34;99.13;99047.84;5075506;28;20590;-81
2022/04/05 02:52:46;;;;;;;1.60;1.50;;;;;;;5.33;99.33;99046.16;5076093;28;20333;-81
2022/04/05 02:55:13;;;;;;;1.97;1.57;;;;;;;5.38;99.44;99041.72;5075540;28;20208;-81
2022/04/05 02:57:41;;;;;;;1.80;1.70;;;;;;;5.41;98.74;99058.06;5076033;28;20205;-81
2022/04/05 03:00:11;;;;;;;1.60;1.50;;;;;;;5.34;99.00;99055.63;5077068;28;20235;-81
2022/04/05 03:02:38;;;;;;;1.57;1.47;;;;;;;5.35;98.95;99059.91;5077083;28;20205;-81
2022/04/05 03:05:06;;;;;;;1.70;1.60;;;;;;;5.39;98.87;99063.28;5076029;28;20707;-81
2022/04/05 03:07:34;;;;;;;1.60;1.50;;;;;;;5.38;98.98;99071.94;5088439;28;20253;-80
2022/04/05 03:10:02;;;;;;;1.87;1.60;;;;;;;5.36;98.39;99076.28;5098433;28;20234;-82
2022/04/05 03:12:29;;;;;;;3.40;1.70;;;;;;;5.37;98.71;99070.22;5097380;28;20203;-81
2022/04/05 03:14:55;;;;;;;2.23;1.73;;;;;;;5.39;99.09;99078.81;5096613;28;20208;-81
2022/04/05 03:17:22;;;;;;;1.50;1.40;;;;;;;5.37;99.06;99083.16;5094490;28;20201;-81
2022/04/05 03:19:48;;;;;;;2.00;1.80;;;;;;;5.37;98.48;99073.69;5092842;28;20224;-82
2022/04/05 03:22:16;;;;;;;1.60;1.50;;;;;;;5.44;98.22;99096.84;5101439;28;20235;-81
2022/04/05 03:24:44;;;;;;;1.60;1.50;;;;;;;5.47;97.67;99108.00;5102806;28;20218;-81
2022/04/05 03:27:12;;;;;;;2.03;1.80;;;;;;;5.49;98.13;99101.06;5109152;28;20208;-79
2022/04/05 03:29:39;;;;;;;1.67;1.57;;;;;;;5.42;97.86;99106.38;5109417;28;20281;-79
2022/04/05 03:32:07;;;;;;;1.60;1.50;;;;;;;5.40;98.13;99098.63;5110335;28;20253;-81
2022/04/05 03:34:33;;;;;;;1.60;1.50;;;;;;;5.40;98.30;99098.63;5103397;28;20239;-81
2022/04/05 03:36:59;;;;;;;2.80;2.60;;;;;;;5.41;98.65;99096.88;5099832;28;20253;-81
2022/04/05 03:39:26;;;;;;;2.50;1.63;;;;;;;5.35;97.78;99087.50;5090996;28;20220;-80
2022/04/05 03:41:53;;;;;;;1.93;1.83;;;;;;;5.38;98.37;99098.66;5099826;28;20212;-81
2022/04/05 03:44:21;;;;;;;1.60;1.50;;;;;;;5.44;98.14;99102.03;5099600;28;20229;-81
2022/04/05 03:46:48;;;;;;;2.20;2.10;;;;;;;5.42;98.20;99107.22;5098865;28;20249;-81
2022/04/05 03:49:14;;;;;;;1.70;1.60;;;;;;;5.42;97.73;99112.41;5100753;28;20259;-81
2022/04/05 03:51:40;;;;;;;1.80;1.70;;;;;;;5.41;98.01;99115.00;5100629;28;20208;-81
2022/04/05 03:54:09;;;;;;;2.17;2.07;;;;;;;5.41;98.18;99115.88;5100219;28;20220;-81
2022/04/05 03:56:35;;;;;;;2.03;1.80;;;;;;;5.42;98.04;99114.97;5100279;28;20663;-81
2022/04/05 03:59:03;;;;;;;2.33;1.90;;;;;;;5.42;97.99;99107.22;5099993;28;20297;-81
2022/04/05 04:01:29;;;;;;;2.30;2.10;;;;;;;5.43;98.46;99111.53;5100608;28;20585;-81
2022/04/05 04:03:56;;;;;;;2.40;2.20;;;;;;;5.46;98.21;99113.19;5098506;28;20249;-82
2022/04/05 04:06:22;;;;;;;2.73;2.17;;;;;;;5.45;97.66;99122.69;5090199;28;20212;-82
2022/04/05 04:08:49;;;;;;;2.70;2.33;;;;;;;5.45;97.84;99129.59;5099549;28;20224;-81
2022/04/05 04:11:17;;;;;;;3.87;2.30;;;;;;;5.50;97.47;99125.19;5100511;28;20229;-81
2022/04/05 04:13:43;;;;;;;2.53;2.30;;;;;;;5.53;97.19;99144.09;5098488;28;20208;-81
2022/04/05 04:16:11;;;;;;;2.47;2.20;;;;;;;5.50;97.23;99135.53;5097598;28;20208;-81
2022/04/05 04:18:37;;;;;;;2.10;1.90;;;;;;;5.50;97.49;99144.16;5090071;28;20479;-81
2022/04/05 04:21:03;;;;;;;3.03;2.40;;;;;;;5.52;97.21;99144.97;5098877;28;20253;-81
2022/04/05 04:23:30;;;;;;;2.93;2.57;;;;;;;5.49;97.71;99136.41;5089984;28;20695;-79
2022/04/05 04:25:56;;;;;;;2.43;2.20;;;;;;;5.48;97.67;99142.47;5098014;28;20619;-81
2022/04/05 04:28:23;;;;;;;2.43;2.20;;;;;;;5.46;97.73;99134.75;5098517;28;20224;-80
2022/04/05 04:30:49;;;;;;;3.00;2.23;;;;;;;5.45;97.86;99137.34;5097164;28;20200;-82
2022/04/05 04:33:17;;;;;;;2.97;2.23;;;;;;;5.45;97.57;99148.56;5099486;28;20226;-81
2022/04/05 04:35:45;;;;;;;6.93;2.90;;;;;;;5.42;98.13;99138.28;5098109;28;20212;-81
2022/04/05 04:38:12;;;;;;;2.90;2.70;;;;;;;5.44;98.15;99131.31;5098553;28;20233;-81
2022/04/05 04:40:39;;;;;;;4.60;2.70;;;;;;;5.49;97.68;99145.03;5098583;28;20215;-81
2022/04/05 04:43:06;;;;;;;3.77;2.97;;;;;;;5.46;97.65;99147.69;5099091;28;20204;-81
2022/04/05 04:45:32;;;;;;;3.00;2.80;;;;;;;5.50;97.67;99151.06;5098271;28;20285;-81
2022/04/05 04:47:58;;;;;;;4.33;2.80;;;;;;;5.51;98.02;99145.88;5098507;28;20224;-82
2022/04/05 04:50:26;;;;;;;3.40;3.13;;;;;;;5.49;98.14;99152.81;5098642;28;20234;-81
2022/04/05 04:52:54;;;;;;;3.30;2.57;;;;;;;5.46;98.51;99147.69;5092929;28;20254;-82
2022/04/05 04:55:22;;;;;;;3.40;3.10;;;;;;;5.44;98.78;99133.06;5095866;28;20207;-81
2022/04/05 04:57:48;;;;;;;4.00;3.60;;;;;;;5.44;99.06;99135.66;5098373;28;20244;-81
2022/04/05 05:00:16;;;;;;;5.07;3.53;;;;;;;5.41;99.29;99122.75;5098149;28;20204;-81
2022/04/05 05:02:47;;;;;;;4.60;4.20;;;;;;;5.46;99.08;99129.56;5098565;28;20683;-79
2022/04/05 05:05:16;;;;;;;4.90;4.17;;;;;;;5.45;99.24;99130.47;5097598;28;20250;-82
2022/04/05 05:07:45;;;;;;;3.83;2.90;;;;;;;5.55;97.99;99157.03;5089365;28;20253;-81
2022/04/05 05:10:12;;;;;;;3.60;2.90;;;;;;;5.57;97.48;99170.78;5097805;28;20208;-80
2022/04/05 05:12:38;;;;;;;4.20;3.00;;;;;;;5.62;97.55;99186.22;5097574;28;20204;-80
2022/04/05 05:15:06;;;;;;;12.00;3.20;;;;;;;5.66;96.09;99216.34;5096707;28;20208;-80
2022/04/05 05:17:32;;;;;;;3.93;2.70;;;;;;;5.66;96.35;99231.88;5094195;28;20646;-81
2022/04/05 05:19:58;;;;;;;4.27;2.63;;;;;;;5.65;96.50;99231.03;5091436;28;20261;-81
2022/04/05 05:22:25;;;;;;;3.53;2.57;;;;;;;5.64;97.20;99223.28;5098135;28;20257;-81
2022/04/05 05:24:52;;;;;;;3.33;3.03;;;;;;;5.63;97.45;99203.44;5097087;28;20259;-81
2022/04/05 05:27:19;;;;;;;5.17;2.97;;;;;;;5.59;97.62;99200.09;5097230;28;20224;-80
2022/04/05 05:29:45;;;;;;;4.33;3.27;;;;;;;5.63;97.67;99201.72;5097335;28;20225;-82
2022/04/05 05:32:13;;;;;;;3.60;2.97;;;;;;;5.68;97.11;99210.25;5097235;28;20234;-81
2022/04/05 05:34:40;;;;;;;3.30;2.73;;;;;;;5.73;97.61;99230.88;5097441;28;20253;-81
2022/04/05 05:37:06;;;;;;;5.20;2.53;;;;;;;5.68;97.08;99238.72;5097238;28;20233;-81
2022/04/05 05:39:32;;;;;;;4.20;3.37;;;;;;;5.68;97.75;99240.47;5097221;28;20230;-82
2022/04/05 05:42:00;;;;;;;3.73;3.43;;;;;;;5.65;98.42;99232.75;5096195;28;20616;-82
2022/04/05 05:44:26;;;;;;;4.10;3.80;;;;;;;5.67;98.52;99230.97;5097173;28;20203;-80
2022/04/05 05:46:53;;;;;;;3.70;3.40;;;;;;;5.64;98.21;99234.47;5096276;28;20277;-81
2022/04/05 05:49:19;;;;;;;5.90;3.43;;;;;;;5.67;98.32;99223.22;5087945;28;20220;-80
2022/04/05 05:51:46;;;;;;;3.87;3.57;;;;;;;5.75;98.17;99229.13;5092224;28;20205;-80
2022/04/05 05:54:12;;;;;;;5.30;3.07;;;;;;;5.73;98.80;99230.88;5093938;28;20200;-81
2022/04/05 05:56:38;;;;;;;6.00;3.37;;;;;;;5.75;99.49;99226.53;5098144;28;20261;-81
2022/04/05 05:59:06;;;;;;;6.97;3.77;;;;;;;5.76;99.43;99203.19;5098999;28;20281;-81
2022/04/05 06:01:33;;;;;;;5.10;3.90;;;;;;;5.64;100.00;99200.84;5097455;28;20729;-81
2022/04/05 06:04:01;;;;;;;6.13;3.73;;;;;;;5.68;100.00;99186.09;5098353;28;20259;-81
2022/04/05 06:06:28;;;;;;;6.37;4.03;;;;;;;5.78;100.00;99182.44;5101215;28;20908;-81
2022/04/05 06:08:55;;;;;;;6.13;3.70;;;;;;;5.64;100.00;99185.28;5100380;28;20224;-80
2022/04/05 06:11:21;;;;;;;5.90;3.43;;;;;;;5.63;100.00;99182.72;5100962;28;20249;-80
2022/04/05 06:13:49;;;;;;;5.70;3.83;;;;;;;5.61;100.00;99180.19;5099829;28;20207;-80
2022/04/05 06:16:18;;;;;;;7.27;3.40;;;;;;;5.54;100.00;99183.78;5101061;28;20238;-80
2022/04/05 06:18:45;;;;;;;5.50;3.47;;;;;;;5.54;100.00;99183.78;5101072;28;20223;-81
2022/04/05 06:21:11;;;;;;;5.67;3.17;;;;;;;5.38;100.00;99228.03;5096302;28;20243;-78
2022/04/05 06:23:37;;;;;;;4.43;3.17;;;;;;;5.24;100.00;99242.09;5089706;28;20262;-80
2022/04/05 06:26:04;;;;;;;5.43;2.67;;;;;;;5.29;99.66;99254.09;5081553;28;20278;-80
2022/04/05 06:28:31;;;;;;;6.20;3.10;;;;;;;5.30;98.52;99273.03;5078088;28;20225;-78
2022/04/05 06:31:00;;;;;;;6.87;2.53;;;;;;;5.29;98.15;99300.66;5077681;28;20235;-78
2022/04/05 06:33:28;;;;;;;3.53;2.37;;;;;;;5.23;98.12;99297.28;5073698;28;20232;-78
2022/04/05 06:35:57;;;;;;;4.07;2.37;;;;;;;5.23;97.53;99308.50;5073717;28;20208;-80
2022/04/05 06:38:24;;;;;;;4.47;2.57;;;;;;;5.30;96.87;99330.81;5072760;28;20230;-78
2022/04/05 06:40:52;;;;;;;5.57;2.30;;;;;;;5.33;97.16;99343.72;5072511;28;20205;-78
2022/04/05 06:43:21;;;;;;;4.93;2.00;;;;;;;5.38;97.31;99333.28;5072387;28;20817;-78
2022/04/05 06:45:48;;;;;;;10.53;2.27;;;;;;;5.41;97.34;99328.06;5076342;28;20207;-79
2022/04/05 06:48:14;;;;;;;5.63;2.33;;;;;;;5.38;96.96;99341.91;5083237;28;20220;-79
2022/04/05 06:50:42;;;;;;;3.70;1.80;;;;;;;5.35;96.99;99341.97;5092181;28;20207;-80
2022/04/05 06:53:10;;;;;;;4.23;2.10;;;;;;;5.35;97.53;99322.97;5084409;28;20667;-81
2022/04/05 06:55:37;;;;;;;4.50;2.00;;;;;;;5.39;96.88;99337.56;5091045;28;20200;-81
2022/04/05 06:58:04;;;;;;;4.03;1.50;;;;;;;5.45;96.32;99350.44;5092498;28;20262;-81
2022/04/05 07:00:33;;;;;;;6.17;1.80;;;;;;;5.50;96.13;99365.88;5092476;28;20671;-81
2022/04/05 07:03:00;;;;;;;7.00;1.93;;;;;;;5.50;95.25;99381.41;5092077;28;20204;-78
2022/04/05 07:05:27;;;;;;;7.37;1.67;;;;;;;5.55;95.62;99397.75;5092083;28;20258;-79
2022/04/05 07:07:56;;;;;;;5.13;1.63;;;;;;;5.50;94.93;99397.78;5092107;28;20821;-81
2022/04/05 07:10:22;;;;;;;3.23;1.53;;;;;;;5.48;94.51;99411.63;5092169;28;20332;-81
2022/04/05 07:12:55;;;;;;;5.53;2.00;;;;;;;5.47;94.95;99415.09;5092741;28;20258;-80
2022/04/05 07:15:23;;;;;;;3.33;1.50;;;;;;;5.45;94.91;99402.19;5087571;28;20238;-83
2022/04/05 07:17:54;;;;;;;3.80;1.47;;;;;;;5.36;94.46;99412.66;5082661;28;20228;-80
2022/04/05 07:20:20;;;;;;;6.33;1.60;;;;;;;5.38;95.71;99385.03;5081678;28;20203;-80
2022/04/05 07:22:48;;;;;;;4.00;1.30;;;;;;;5.48;95.47;99371.06;5084781;28;20272;-80
2022/04/05 07:25:18;;;;;;;5.10;1.60;;;;;;;5.53;95.96;99353.75;5096102;28;20617;-83
2022/04/05 07:27:45;;;;;;;5.07;2.17;;;;;;;5.50;96.44;99355.53;5099478;28;20240;-83
2022/04/05 07:30:13;;;;;;;3.10;2.13;;;;;;;5.55;97.62;99328.69;5101363;28;20283;-84
2022/04/05 07:32:42;;;;;;;4.87;1.90;;;;;;;5.50;97.61;99314.97;5102892;28;20227;-83
2022/04/05 07:35:09;;;;;;;5.67;1.97;;;;;;;5.48;98.39;99300.34;5109857;28;20196;-83
2022/04/05 07:37:37;;;;;;;5.37;2.27;;;;;;;5.57;98.56;99290.69;5107780;28;20258;-82
2022/04/05 07:40:10;;;;;;;4.43;2.93;;;;;;;5.64;99.21;99278.50;5093791;28;20226;-84
2022/04/05 07:42:41;;;;;;;5.80;2.70;;;;;;;5.62;99.30;99267.31;5092836;28;20235;-84
2022/04/05 07:45:11;;;;;;;4.87;2.90;;;;;;;5.65;99.77;99256.03;5093130;28;20192;-84
2022/04/05 07:47:40;;;;;;;4.73;2.77;;;;;;;5.66;100.00;99260.34;5092027;28;20687;-84
2022/04/05 07:50:08;;;;;;;8.83;2.80;;;;;;;5.67;100.00;99255.16;5092785;28;20204;-82
2022/04/05 07:52:35;;;;;;;4.53;3.20;;;;;;;5.62;100.00;99250.94;5090415;28;20212;-82
2022/04/05 07:55:01;;;;;;;4.27;2.80;;;;;;;5.75;99.92;99258.44;5087110;28;20196;-83
2022/04/05 07:57:32;;;;;;;6.33;3.50;;;;;;;5.76;99.76;99261.88;5097202;28;20201;-81
2022/04/05 08:00:04;;;;;;;6.00;2.87;;;;;;;5.78;99.00;99275.66;5097841;28;20198;-82
2022/04/05 08:02:32;;;;;;;6.20;2.80;;;;;;;5.88;99.12;99279.78;5097629;28;20192;-81
2022/04/05 08:04:58;;;;;;;5.50;2.63;;;;;;;5.89;98.76;99286.69;5100186;28;20262;-82
2022/04/05 08:07:25;;;;;;;3.87;2.43;;;;;;;5.94;99.74;99277.06;5117666;28;20228;-82
2022/04/05 08:09:53;;;;;;;5.87;2.63;;;;;;;6.02;99.71;99274.38;5120672;28;20201;-82
2022/04/05 08:12:21;;;;;;;5.97;3.10;;;;;;;6.06;99.53;99262.22;5120821;28;20213;-82
2022/04/05 08:14:47;;;;;;;5.17;2.90;;;;;;;6.12;99.66;99268.13;5116437;28;20200;-82
2022/04/05 08:17:15;;;;;;;4.70;2.50;;;;;;;6.18;99.21;99280.09;5098249;28;20196;-81
2022/04/05 08:19:43;;;;;;;5.23;3.10;;;;;;;6.15;99.05;99301.75;5099915;28;20224;-84
2022/04/05 08:22:11;;;;;;;4.53;2.93;;;;;;;6.07;98.65;99315.75;5099585;28;20196;-82
2022/04/05 08:24:37;;;;;;;3.80;2.73;;;;;;;6.05;97.49;99330.47;5079324;28;20235;-81
2022/04/05 08:27:04;;;;;;;6.70;3.27;;;;;;;6.07;96.85;99372.75;5081313;28;20295;-82
2022/04/05 08:29:40;;;;;;;3.23;1.90;;;;;;;6.12;95.56;99397.66;5080340;28;20251;-83
2022/04/05 08:32:06;;;;;;;5.47;3.53;;;;;;;6.03;95.70;99403.03;5081213;28;20226;-82
2022/04/05 08:34:35;;;;;;;4.67;2.87;;;;;;;5.99;95.40;99413.47;5081611;28;20201;-83
2022/04/05 08:37:01;;;;;;;3.70;2.33;;;;;;;5.99;94.28;99439.38;5080395;28;20254;-80
2022/04/05 08:39:28;;;;;;;5.63;2.20;;;;;;;6.06;94.75;99447.00;5080470;28;20229;-81
2022/04/05 08:41:56;;;;;;;7.07;2.20;;;;;;;6.08;93.91;99447.81;5081348;28;20227;-82
2022/04/05 08:44:24;;;;;;;5.50;1.60;;;;;;;6.20;93.57;99461.47;5080461;28;20291;-82
2022/04/05 08:46:52;;;;;;;5.13;1.30;;;;;;;6.35;92.89;99492.31;5079734;28;20233;-83
2022/04/05 08:49:19;;;;;;;3.83;1.23;;;;;;;6.43;92.15;99528.47;5080807;28;20229;-81
2022/04/05 08:51:47;;;;;;;7.97;1.50;;;;;;;6.54;91.33;99534.31;5086711;28;20208;-81
2022/04/05 08:54:15;;;;;;;6.00;1.70;;;;;;;6.52;90.86;99549.91;5090901;28;20241;-84
2022/04/05 08:56:47;;;;;;;6.87;1.77;;;;;;;6.48;89.82;99573.31;5082670;28;20260;-81
2022/04/05 08:59:15;;;;;;;6.93;1.60;;;;;;;6.48;89.46;99599.22;5078072;28;20258;-82
2022/04/05 09:01:42;;;;;;;5.43;2.30;;;;;;;6.62;89.71;99606.78;5084391;28;20246;-81
2022/04/05 09:04:10;;;;;;;4.93;1.83;;;;;;;6.68;89.39;99588.53;5084711;28;20196;-82
2022/04/05 09:06:37;;;;;;;2.17;1.20;;;;;;;6.82;89.83;99580.50;5098673;28;20287;-83
2022/04/05 09:09:12;;;;;;;4.67;1.50;;;;;;;6.95;90.14;99579.41;5097065;28;20235;-82
2022/04/05 09:11:43;;;;;;;8.20;2.57;;;;;;;6.97;88.46;99612.22;5096372;28;20204;-84
2022/04/05 09:14:10;;;;;;;3.47;1.77;;;;;;;7.06;88.14;99625.94;5095634;28;20295;-81
2022/04/05 09:16:42;;;;;;;3.07;1.83;;;;;;;7.03;88.56;99616.44;5095247;28;20242;-80
2022/04/05 09:19:13;;;;;;;5.63;1.73;;;;;;;7.04;87.78;99628.56;5096292;28;20231;-82
2022/04/05 09:21:50;;;;;;;8.57;2.20;;;;;;;7.16;88.81;99607.56;5095264;28;20628;-82
2022/04/05 09:24:18;;;;;;;4.13;1.50;;;;;;;7.16;89.11;99599.78;5090046;28;20250;-82
2022/04/05 09:26:47;;;;;;;5.70;2.10;;;;;;;7.28;88.57;99610.84;5075295;28;20210;-83
2022/04/05 09:29:15;;;;;;;6.27;1.80;;;;;;;7.33;89.30;99599.47;5074775;28;20221;-81
2022/04/05 09:31:48;;;;;;;8.77;2.27;;;;;;;7.25;88.16;99614.31;5075395;28;20233;-81
2022/04/05 09:34:17;;;;;;;6.33;2.90;;;;;;;7.35;88.18;99615.88;5074684;28;20209;-81
2022/04/05 09:36:46;;;;;;;5.50;2.03;;;;;;;7.31;88.20;99624.63;5074988;28;20675;-81
2022/04/05 09:39:16;;;;;;;4.63;1.80;;;;;;;7.23;88.48;99608.31;5075534;28;20224;-82
2022/04/05 09:41:44;;;;;;;5.47;1.83;;;;;;;7.10;88.83;99592.13;5076216;28;20247;-80
2022/04/05 09:44:12;;;;;;;3.87;1.90;;;;;;;7.09;89.55;99581.75;5075211;28;20202;-81
2022/04/05 09:46:42;;;;;;;6.87;3.07;;;;;;;7.14;90.21;99552.25;5075294;28;20200;-80
2022/04/05 09:49:14;;;;;;;2.90;2.00;;;;;;;7.09;90.55;99556.66;5074546;28;20224;-81
2022/04/05 09:51:46;;;;;;;3.33;1.90;;;;;;;6.96;89.89;99544.81;5081857;28;20614;-81
2022/04/05 09:54:22;;;;;;;4.17;2.00;;;;;;;6.91;91.49;99520.69;5087607;28;20207;-82
2022/04/05 09:56:50;;;;;;;6.10;2.70;;;;;;;6.87;92.18;99477.53;5096652;28;20194;-81
2022/04/05 09:59:19;;;;;;;5.00;2.93;;;;;;;6.81;92.59;99464.69;5095992;28;20301;-82
2022/04/05 10:01:46;;;;;;;4.03;3.47;;;;;;;6.93;92.48;99444.53;5096434;28;20666;-79
2022/04/05 10:04:15;;;;;;;4.13;3.60;;;;;;;7.00;94.06;99432.31;5096019;28;20220;-80
2022/04/05 10:06:44;;;;;;;6.37;3.67;;;;;;;7.13;93.26;99419.91;5095315;28;20239;-81
2022/04/05 10:09:11;;;;;;;3.90;3.53;;;;;;;7.07;93.48;99423.50;5094815;28;20787;-80
2022/04/05 10:11:40;;;;;;;4.93;4.03;;;;;;;7.05;92.53;99447.78;5094532;28;20204;-82
2022/04/05 10:14:13;;;;;;;4.57;4.13;;;;;;;7.19;93.87;99422.38;5095068;28;20233;-78
2022/04/05 10:16:41;;;;;;;4.37;3.97;;;;;;;7.22;93.50;99405.91;5095951;28;20207;-81
2022/04/05 10:19:10;;;;;;;5.60;3.30;;;;;;;7.26;92.68;99410.16;5089001;28;20222;-79
2022/04/05 10:21:40;;;;;;;4.83;4.20;;;;;;;7.22;93.05;99427.53;5087103;28;20204;-79
2022/04/05 10:24:08;;;;;;;5.20;4.67;;;;;;;7.25;94.09;99404.06;5087679;28;20745;-79
2022/04/05 10:26:36;;;;;;;4.13;3.83;;;;;;;7.36;94.28;99378.75;5096621;28;20203;-80
2022/04/05 10:29:08;;;;;;;5.17;3.77;;;;;;;7.45;93.77;99395.88;5094870;28;20224;-82
2022/04/05 10:31:52;;;;;;;4.17;3.47;;;;;;;7.39;93.68;99395.13;5096276;28;20238;-81
2022/04/05 10:34:24;;;;;;;4.00;3.70;;;;;;;7.39;92.71;99406.38;5095236;28;20670;-81
2022/04/05 10:37:16;;;;;;;4.13;3.50;;;;;;;7.46;93.72;99414.88;5095243;28;20193;-82
2022/04/05 10:39:43;;;;;;;3.10;2.80;;;;;;;7.46;92.16;99426.13;5094794;28;20736;-80
2022/04/05 10:42:16;;;;;;;5.97;4.07;;;;;;;7.60;91.87;99461.31;4389637;28;10000722;-81
2022/04/05 10:44:48;;;;;;;4.10;3.57;;;;;;;7.77;92.91;99438.41;5084515;28;20206;-82
2022/04/05 10:47:15;;;;;;;3.90;3.50;;;;;;;7.62;91.89;99464.72;5091913;28;20233;-81
2022/04/05 10:49:43;;;;;;;4.03;3.73;;;;;;;7.62;92.28;99450.00;5091183;28;20229;-82
2022/04/05 10:52:16;;;;;;;4.23;3.83;;;;;;;7.74;92.89;99434.13;5091042;28;20235;-80
2022/04/05 10:54:45;;;;;;;8.50;3.67;;;;;;;7.77;92.86;99422.81;5081956;28;20242;-79
2022/04/05 10:57:30;;;;;;;4.33;3.90;;;;;;;7.66;93.73;99410.06;5091589;28;20210;-80
2022/04/05 11:00:22;;;;;;;4.70;4.30;;;;;;;7.69;93.62;99380.56;5091638;28;20201;-79
2022/04/05 11:03:03;;;;;;;4.73;4.33;;;;;;;7.70;93.96;99374.50;5092605;28;20234;-81
2022/04/05 11:05:42;;;;;;;4.13;3.73;;;;;;;7.83;94.16;99357.72;5091898;28;20201;-80
2022/04/05 11:08:19;;;;;;;3.50;3.20;;;;;;;7.80;93.45;99383.75;5092513;28;20227;-81
2022/04/05 11:10:53;;;;;;;3.40;3.10;;;;;;;7.90;93.41;99398.22;5092303;28;20203;-81
2022/04/05 11:13:22;;;;;;;3.40;3.10;;;;;;;7.96;92.80;99392.88;5091590;28;20618;-79
2022/04/05 11:15:56;;;;;;;4.40;3.77;;;;;;;7.72;92.28;99428.09;5092171;28;20204;-81
2022/04/05 11:18:24;;;;;;;3.30;2.90;;;;;;;7.69;92.39;99432.50;5091412;28;20228;-80
2022/04/05 11:20:52;;;;;;;4.23;3.07;;;;;;;7.55;92.55;99428.50;5090987;28;20211;-81
2022/04/05 11:23:20;;;;;;;3.90;3.30;;;;;;;7.54;92.43;99421.59;5079754;28;20197;-80
2022/04/05 11:25:48;;;;;;;3.17;2.83;;;;;;;7.66;92.88;99411.81;5090668;28;20210;-83
2022/04/05 11:28:21;;;;;;;3.30;3.07;;;;;;;7.61;91.05;99447.44;5088867;28;20288;-79
2022/04/05 11:30:54;;;;;;;4.03;2.70;;;;;;;7.62;91.88;99459.53;5083186;28;20204;-82
2022/04/05 11:33:45;;;;;;;2.97;2.67;;;;;;;7.66;92.06;99450.78;5091008;28;20188;-80
2022/04/05 11:36:13;;;;;;;4.70;2.90;;;;;;;7.58;92.35;99452.72;5090737;28;20214;-80
2022/04/05 11:38:41;;;;;;;2.93;2.73;;;;;;;7.65;93.69;99404.91;5090728;28;20228;-80
2022/04/05 11:41:24;;;;;;;3.50;3.20;;;;;;;7.78;94.04;99384.69;5094155;28;20257;-79
2022/04/05 11:43:51;;;;;;;3.67;3.30;;;;;;;7.62;93.84;99392.84;5074212;28;20586;-80